createdAt,value
2018-04-18T00:01:35.424Z,60.30
2018-04-18T00:04:04.443Z,61.50
2018-04-18T00:06:33.384Z,62.00
2018-04-18T00:09:02.528Z,62.20
2018-04-18T00:11:31.475Z,62.70
2018-04-18T00:14:00.479Z,63.30
2018-04-18T00:16:30.286Z,64.40
2018-04-18T00:18:59.989Z,64.40
2018-04-18T00:21:29.663Z,64.80
2018-04-18T00:23:58.566Z,64.80
2018-04-18T00:26:27.670Z,65.40
2018-04-18T00:28:56.784Z,65.60
2018-04-18T00:31:26.456Z,66.50
2018-04-18T00:33:55.496Z,66.40
2018-04-18T00:36:25.149Z,67.50
2018-04-18T00:38:54.081Z,67.40
2018-04-18T00:41:23.843Z,68.50
2018-04-18T00:43:52.963Z,68.40
2018-04-18T00:46:21.859Z,68.60
2018-04-18T00:48:50.828Z,68.80
2018-04-18T00:51:19.725Z,69.30
2018-04-18T00:53:48.742Z,69.60
2018-04-18T00:56:17.684Z,69.60
2018-04-18T00:58:46.970Z,69.70
2018-04-18T01:01:15.921Z,69.90
2018-04-18T01:03:44.880Z,70.20
2018-04-18T01:06:13.793Z,69.50
2018-04-18T01:08:42.774Z,69.40
2018-04-18T01:11:11.954Z,69.30
2018-04-18T01:13:40.880Z,68.90
2018-04-18T01:16:09.805Z,68.10
2018-04-18T01:18:38.730Z,67.50
2018-04-18T01:21:07.625Z,67.60
2018-04-18T01:23:36.666Z,67.70
2018-04-18T01:26:06.393Z,68.10
2018-04-18T01:28:36.057Z,67.90
2018-04-18T01:31:04.977Z,67.90
2018-04-18T01:33:34.076Z,68.30
2018-04-18T01:36:02.972Z,66.90
2018-04-18T01:38:32.616Z,67.80
2018-04-18T01:41:01.548Z,67.70
2018-04-18T01:43:30.766Z,67.60
2018-04-18T01:46:00.530Z,67.60
2018-04-18T01:48:29.442Z,67.50
2018-04-18T01:50:58.520Z,67.90
2018-04-18T01:53:27.462Z,68.00
2018-04-18T01:55:57.177Z,68.60
2018-04-18T01:58:26.354Z,68.60
2018-04-18T02:00:55.300Z,69.00
2018-04-18T02:03:24.967Z,68.90
2018-04-18T02:05:54.763Z,69.00
2018-04-18T02:08:24.672Z,69.40
2018-04-18T02:10:53.556Z,69.40
2018-04-18T02:13:22.769Z,69.20
2018-04-18T02:15:52.079Z,69.40
2018-04-18T02:18:21.779Z,69.30
2018-04-18T02:20:50.809Z,69.30
2018-04-18T02:23:19.834Z,69.80
2018-04-18T02:25:48.768Z,69.90
2018-04-18T02:28:18.732Z,70.60
2018-04-18T02:30:47.650Z,70.50
2018-04-18T02:33:17.353Z,70.90
2018-04-18T02:35:46.311Z,71.60
2018-04-18T02:38:15.228Z,71.20
2018-04-18T02:40:44.164Z,70.90
2018-04-18T02:43:14.001Z,70.10
2018-04-18T02:45:42.981Z,70.10
2018-04-18T02:48:11.925Z,70.00
2018-04-18T02:50:40.883Z,69.60
2018-04-18T02:53:09.865Z,69.20
2018-04-18T02:55:38.910Z,69.00
2018-04-18T02:58:07.822Z,68.60
2018-04-18T03:00:37.539Z,68.20
2018-04-18T03:03:07.244Z,68.00
2018-04-18T03:05:36.278Z,67.90
2018-04-18T03:08:05.237Z,67.40
2018-04-18T03:10:35.266Z,67.70
2018-04-18T03:13:04.253Z,67.60
2018-04-18T03:15:33.164Z,67.30
2018-04-18T03:18:02.093Z,67.20
2018-04-18T03:20:31.206Z,67.30
2018-04-18T03:23:00.101Z,67.60
2018-04-18T03:25:30.007Z,68.30
2018-04-18T03:27:58.890Z,67.50
2018-04-18T03:30:27.799Z,67.30
2018-04-18T03:32:56.734Z,67.40
2018-04-18T03:35:25.659Z,67.70
2018-04-18T03:37:54.658Z,67.90
2018-04-18T03:40:23.600Z,67.90
2018-04-18T03:42:53.542Z,68.90
2018-04-18T03:45:22.625Z,68.40
2018-04-18T03:47:51.578Z,68.20
2018-04-18T03:50:21.264Z,67.90
2018-04-18T03:52:50.175Z,68.00
2018-04-18T03:55:19.869Z,68.00
2018-04-18T03:57:48.767Z,68.00
2018-04-18T04:00:18.433Z,68.70
2018-04-18T04:02:47.482Z,68.70
2018-04-18T04:05:16.622Z,69.00
2018-04-18T04:07:45.609Z,69.50
2018-04-18T04:10:14.674Z,69.70
2018-04-18T04:12:43.900Z,69.70
2018-04-18T04:15:13.056Z,69.70
2018-04-18T04:17:59.755Z,70.00
2018-04-18T04:20:46.334Z,70.20
2018-04-18T04:23:33.157Z,70.10
2018-04-18T04:26:02.077Z,69.50
2018-04-18T04:28:31.760Z,67.70
2018-04-18T04:31:00.789Z,67.70
2018-04-18T04:33:30.191Z,68.50
2018-04-18T04:35:59.138Z,69.10
2018-04-18T04:38:28.168Z,66.90
2018-04-18T04:40:57.323Z,66.20
2018-04-18T04:43:27.774Z,67.00
2018-04-18T04:45:56.715Z,67.00
2018-04-18T04:48:25.768Z,67.20
2018-04-18T04:50:55.527Z,65.60
2018-04-18T04:53:25.554Z,65.50
2018-04-18T04:55:54.659Z,64.30
2018-04-18T04:58:23.621Z,63.10
2018-04-18T05:00:52.662Z,61.70
2018-04-18T05:03:22.646Z,60.20
2018-04-18T05:05:51.625Z,60.10
2018-04-18T05:08:21.021Z,59.30
2018-04-18T05:10:49.962Z,59.20
2018-04-18T05:13:18.911Z,58.00
2018-04-18T05:15:48.037Z,57.80
2018-04-18T05:18:16.985Z,58.00
2018-04-18T05:20:45.904Z,57.50
2018-04-18T05:23:15.066Z,56.60
2018-04-18T05:25:44.051Z,57.20
2018-04-18T05:28:13.209Z,58.00
2018-04-18T05:30:42.612Z,57.20
2018-04-18T05:33:11.522Z,55.90
2018-04-18T05:35:40.448Z,56.20
2018-04-18T05:38:09.536Z,56.10
2018-04-18T05:40:38.508Z,55.10
2018-04-18T05:43:08.209Z,52.60
2018-04-18T05:45:37.220Z,52.60
2018-04-18T05:48:06.203Z,52.40
2018-04-18T05:50:35.874Z,51.60
2018-04-18T05:53:04.913Z,51.50
2018-04-18T05:55:33.939Z,52.40
2018-04-18T05:58:02.901Z,51.30
2018-04-18T06:00:32.668Z,51.20
2018-04-18T06:03:01.583Z,51.10
2018-04-18T06:05:32.225Z,48.90
2018-04-18T06:08:01.938Z,48.20
2018-04-18T06:10:31.657Z,47.80
2018-04-18T06:13:01.400Z,47.30
2018-04-18T06:15:30.321Z,47.30
2018-04-18T06:17:59.313Z,46.90
2018-04-18T06:20:28.280Z,46.70
2018-04-18T06:22:57.370Z,47.50
2018-04-18T06:25:26.272Z,46.90
2018-04-18T06:27:55.200Z,45.80
2018-04-18T06:30:24.153Z,46.40
2018-04-18T06:32:53.117Z,46.80
2018-04-18T06:35:22.076Z,46.60
2018-04-18T06:37:51.319Z,45.50
2018-04-18T06:40:20.404Z,45.60
2018-04-18T06:42:49.336Z,44.60
2018-04-18T06:45:18.325Z,44.20
2018-04-18T06:47:47.227Z,43.60
2018-04-18T06:50:16.173Z,42.90
2018-04-18T06:52:45.074Z,42.50
2018-04-18T06:55:13.973Z,41.50
2018-04-18T06:57:43.002Z,41.50
2018-04-18T07:00:12.193Z,42.20
2018-04-18T07:02:41.089Z,41.00
2018-04-18T07:05:10.000Z,39.90
2018-04-18T07:07:39.680Z,38.90
2018-04-18T07:10:08.589Z,38.80
2018-04-18T07:12:37.529Z,38.30
2018-04-18T07:15:06.572Z,37.00
2018-04-18T07:17:35.488Z,37.10
2018-04-18T07:20:04.474Z,36.70
2018-04-18T07:22:34.148Z,38.10
2018-04-18T07:25:03.053Z,38.00
2018-04-18T07:27:32.185Z,36.90
2018-04-18T07:30:01.327Z,37.20
2018-04-18T07:32:30.259Z,36.70
2018-04-18T07:34:59.923Z,36.90
2018-04-18T07:37:28.896Z,36.90
2018-04-18T07:39:57.848Z,37.60
2018-04-18T07:42:27.559Z,36.10
2018-04-18T07:44:57.242Z,36.60
2018-04-18T07:47:35.065Z,36.50
2018-04-18T07:50:04.870Z,36.10
2018-04-18T07:52:34.519Z,36.50
2018-04-18T07:55:03.675Z,35.90
2018-04-18T07:57:33.403Z,35.90
2018-04-18T08:00:02.484Z,35.80
2018-04-18T08:02:32.636Z,34.80
2018-04-18T08:05:01.535Z,34.70
2018-04-18T08:07:30.457Z,33.60
2018-04-18T08:09:59.383Z,33.50
2018-04-18T08:12:28.270Z,33.00
2018-04-18T08:14:57.160Z,33.30
2018-04-18T08:17:26.896Z,32.70
2018-04-18T08:19:55.919Z,32.70
2018-04-18T08:22:25.360Z,32.50
2018-04-18T08:24:54.555Z,32.10
2018-04-18T08:27:23.699Z,31.80
2018-04-18T08:29:52.584Z,31.40
2018-04-18T08:32:21.645Z,31.90
2018-04-18T08:34:51.307Z,31.80
2018-04-18T08:37:20.322Z,31.80
2018-04-18T08:39:49.280Z,31.10
2018-04-18T08:42:18.164Z,31.10
2018-04-18T08:44:47.081Z,31.90
2018-04-18T08:47:15.961Z,30.30
2018-04-18T08:49:44.876Z,29.70
2018-04-18T08:52:13.743Z,28.00
2018-04-18T08:54:42.715Z,29.00
2018-04-18T08:57:11.717Z,28.60
2018-04-18T08:59:40.712Z,29.50
2018-04-18T09:02:09.630Z,29.30
2018-04-18T09:04:38.531Z,28.90
2018-04-18T09:07:07.435Z,28.70
2018-04-18T09:09:37.182Z,28.20
2018-04-18T09:12:06.068Z,28.20
2018-04-18T09:14:34.955Z,28.50
2018-04-18T09:17:03.868Z,27.80
2018-04-18T09:19:32.767Z,29.30
2018-04-18T09:22:01.697Z,29.20
2018-04-18T09:24:31.451Z,28.90
2018-04-18T09:27:00.388Z,28.30
2018-04-18T09:29:29.316Z,28.30
2018-04-18T09:31:58.239Z,28.20
2018-04-18T09:34:27.140Z,27.50
2018-04-18T09:36:56.045Z,27.20
2018-04-18T09:39:25.132Z,27.90
2018-04-18T09:41:54.086Z,27.10
2018-04-18T09:44:22.985Z,27.70
2018-04-18T09:46:51.910Z,27.80
2018-04-18T09:49:20.805Z,26.60
2018-04-18T09:51:49.745Z,26.40
2018-04-18T09:54:18.749Z,26.10
2018-04-18T09:56:47.648Z,26.10
2018-04-18T09:59:16.501Z,24.60
2018-04-18T10:01:46.248Z,26.40
2018-04-18T10:04:15.197Z,26.40
2018-04-18T10:06:44.886Z,28.20
2018-04-18T10:09:13.789Z,27.70
2018-04-18T10:11:42.849Z,28.50
2018-04-18T10:14:11.913Z,28.30
2018-04-18T10:16:40.822Z,27.30
2018-04-18T10:19:10.049Z,27.30
2018-04-18T10:21:39.020Z,27.10
2018-04-18T10:24:07.967Z,27.20
2018-04-18T10:26:37.612Z,27.40
2018-04-18T10:29:06.520Z,27.40
2018-04-18T10:31:35.470Z,27.20
2018-04-18T10:34:05.141Z,26.60
2018-04-18T10:36:34.264Z,26.60
2018-04-18T10:39:03.270Z,26.50
2018-04-18T10:41:34.129Z,26.90
2018-04-18T10:44:03.149Z,26.90
2018-04-18T10:46:32.213Z,27.20
2018-04-18T10:49:01.452Z,27.90
2018-04-18T10:51:30.743Z,28.10
2018-04-18T10:53:59.748Z,28.00
2018-04-18T10:56:29.480Z,28.90
2018-04-18T10:58:59.153Z,29.10
2018-04-18T11:01:28.936Z,28.80
2018-04-18T11:03:57.871Z,28.90
2018-04-18T11:06:26.973Z,28.70
2018-04-18T11:08:55.893Z,28.90
2018-04-18T11:11:24.785Z,28.10
2018-04-18T11:13:53.724Z,30.00
2018-04-18T11:16:22.644Z,30.50
2018-04-18T11:18:52.353Z,29.50
2018-04-18T11:21:22.056Z,30.00
2018-04-18T11:23:51.840Z,29.40
2018-04-18T11:26:21.584Z,29.30
2018-04-18T11:28:51.518Z,29.00
2018-04-18T11:31:20.404Z,29.00
2018-04-18T11:33:49.537Z,28.80
2018-04-18T11:36:18.435Z,27.90
2018-04-18T11:38:47.397Z,28.40
2018-04-18T11:41:16.529Z,27.70
2018-04-18T11:43:45.471Z,27.70
2018-04-18T11:46:14.599Z,27.80
2018-04-18T11:48:43.502Z,28.20
2018-04-18T11:51:12.466Z,28.20
2018-04-18T11:53:41.409Z,28.70
2018-04-18T11:56:10.333Z,29.40
2018-04-18T11:58:39.252Z,27.60
2018-04-18T12:01:08.214Z,27.60
2018-04-18T12:03:37.868Z,28.70
2018-04-18T12:06:06.933Z,28.70
2018-04-18T12:08:35.852Z,28.80
2018-04-18T12:11:05.484Z,28.60
2018-04-18T12:13:34.385Z,28.50
2018-04-18T12:16:03.348Z,30.00
2018-04-18T12:18:32.240Z,29.60
2018-04-18T12:21:01.590Z,28.90
2018-04-18T12:23:31.726Z,29.70
2018-04-18T12:26:00.660Z,29.70
2018-04-18T12:28:29.900Z,29.70
2018-04-18T12:30:58.868Z,29.30
2018-04-18T12:33:28.535Z,30.30
2018-04-18T12:35:57.477Z,29.90
2018-04-18T12:38:26.384Z,29.60
2018-04-18T12:40:55.321Z,29.80
2018-04-18T12:43:24.451Z,29.90
2018-04-18T12:45:53.880Z,30.00
2018-04-18T12:48:23.189Z,30.00
2018-04-18T12:50:52.210Z,30.30
2018-04-18T12:53:21.137Z,31.30
2018-04-18T12:55:50.082Z,31.70
2018-04-18T12:58:19.060Z,31.20
2018-04-18T13:00:48.128Z,31.20
2018-04-18T13:03:18.560Z,31.00
2018-04-18T13:05:48.318Z,30.50
2018-04-18T13:08:17.550Z,30.50
2018-04-18T13:10:46.441Z,31.10
2018-04-18T13:13:15.357Z,30.40
2018-04-18T13:15:44.528Z,30.40
2018-04-18T13:18:13.472Z,29.90
2018-04-18T13:20:42.391Z,31.30
2018-04-18T13:23:11.322Z,31.80
2018-04-18T13:25:41.219Z,30.90
2018-04-18T13:28:10.128Z,30.90
2018-04-18T13:30:39.799Z,30.00
2018-04-18T13:33:08.811Z,30.00
2018-04-18T13:35:37.712Z,30.00
2018-04-18T13:38:07.595Z,30.20
2018-04-18T13:40:36.568Z,30.20
2018-04-18T13:43:05.545Z,30.60
2018-04-18T13:45:34.692Z,30.60
2018-04-18T13:48:03.573Z,30.60
2018-04-18T13:50:32.492Z,30.00
2018-04-18T13:53:01.621Z,30.80
2018-04-18T13:55:30.556Z,31.00
2018-04-18T13:57:59.459Z,31.90
2018-04-18T14:00:28.351Z,31.80
2018-04-18T14:02:57.274Z,31.50
2018-04-18T14:05:26.165Z,31.00
2018-04-18T14:07:55.066Z,31.60
2018-04-18T14:10:24.480Z,32.30
2018-04-18T14:12:53.384Z,32.00
2018-04-18T14:15:22.473Z,32.20
2018-04-18T14:17:51.419Z,32.60
2018-04-18T14:20:20.722Z,33.10
2018-04-18T14:22:50.409Z,34.20
2018-04-18T14:25:19.284Z,34.10
2018-04-18T14:27:48.200Z,34.50
2018-04-18T14:30:17.856Z,33.50
2018-04-18T14:32:46.751Z,33.50
2018-04-18T14:35:15.664Z,33.70
2018-04-18T14:37:44.571Z,34.80
2018-04-18T14:40:13.555Z,34.90
2018-04-18T14:42:43.252Z,35.30
2018-04-18T14:45:12.212Z,34.70
2018-04-18T14:47:41.134Z,34.10
2018-04-18T14:50:10.129Z,33.50
2018-04-18T14:52:39.032Z,32.90
2018-04-18T14:55:07.930Z,33.00
2018-04-18T14:57:36.834Z,34.00
2018-04-18T15:00:05.770Z,33.50
2018-04-18T15:02:34.971Z,33.90
2018-04-18T15:05:03.887Z,34.80
2018-04-18T15:07:33.064Z,34.80
2018-04-18T15:10:02.201Z,35.20
2018-04-18T15:12:31.868Z,35.20
2018-04-18T15:15:00.914Z,35.20
2018-04-18T15:17:30.760Z,35.10
2018-04-18T15:19:59.675Z,35.10
2018-04-18T15:22:28.548Z,35.10
2018-04-18T15:24:57.481Z,34.70
2018-04-18T15:27:27.981Z,35.10
2018-04-18T15:29:56.957Z,35.00
2018-04-18T15:32:25.844Z,34.50
2018-04-18T15:34:54.885Z,35.20
2018-04-18T15:37:23.800Z,34.90
2018-04-18T15:39:52.726Z,35.10
2018-04-18T15:42:21.612Z,35.60
2018-04-18T15:44:50.581Z,35.50
2018-04-18T15:47:19.520Z,35.60
2018-04-18T15:49:48.550Z,35.50
2018-04-18T15:52:18.232Z,35.90
2018-04-18T15:54:48.057Z,35.90
2018-04-18T15:57:17.117Z,36.20
2018-04-18T15:59:46.032Z,36.30
2018-04-18T16:02:15.174Z,36.80
2018-04-18T16:04:44.743Z,37.10
2018-04-18T16:07:13.993Z,35.50
2018-04-18T16:09:42.971Z,35.40
2018-04-18T16:12:11.889Z,36.10
2018-04-18T16:14:41.031Z,35.90
2018-04-18T16:17:10.712Z,36.10
2018-04-18T16:19:39.671Z,36.10
2018-04-18T16:22:08.703Z,36.80
2018-04-18T16:24:37.679Z,36.40
2018-04-18T16:27:06.727Z,36.30
2018-04-18T16:29:43.788Z,35.90
2018-04-18T16:32:12.767Z,35.90
2018-04-18T16:34:42.667Z,37.40
2018-04-18T16:37:11.613Z,36.20
2018-04-18T16:39:41.465Z,36.10
2018-04-18T16:42:10.384Z,36.10
2018-04-18T16:44:40.212Z,36.40
2018-04-18T16:47:10.067Z,36.50
2018-04-18T16:49:39.080Z,36.20
2018-04-18T16:52:07.971Z,36.40
2018-04-18T16:54:36.877Z,36.40
2018-04-18T16:57:05.863Z,36.90
2018-04-18T16:59:34.723Z,37.00
2018-04-18T17:02:04.073Z,37.80
2018-04-18T17:04:33.387Z,37.70
2018-04-18T17:07:02.993Z,37.90
2018-04-18T17:09:33.023Z,38.80
2018-04-18T17:12:02.244Z,38.80
2018-04-18T17:14:31.180Z,39.00
2018-04-18T17:17:00.147Z,39.40
2018-04-18T17:19:29.266Z,39.60
2018-04-18T17:21:58.480Z,39.90
2018-04-18T17:24:27.427Z,40.40
2018-04-18T17:26:56.484Z,40.40
2018-04-18T17:29:26.140Z,41.50
2018-04-18T17:31:55.081Z,41.50
2018-04-18T17:34:24.042Z,41.50
2018-04-18T17:36:53.050Z,41.60
2018-04-18T17:39:21.936Z,41.90
2018-04-18T17:41:51.289Z,42.30
2018-04-18T17:44:20.384Z,42.70
2018-04-18T17:46:49.306Z,43.30
2018-04-18T17:49:18.413Z,43.10
2018-04-18T17:51:47.484Z,43.10
2018-04-18T17:54:16.380Z,43.00
2018-04-18T17:56:45.361Z,43.50
2018-04-18T17:59:14.344Z,43.70
2018-04-18T18:01:43.344Z,44.70
2018-04-18T18:04:12.567Z,44.60
2018-04-18T18:06:41.523Z,45.10
2018-04-18T18:09:10.467Z,46.00
2018-04-18T18:11:39.425Z,46.00
2018-04-18T18:14:08.446Z,45.80
2018-04-18T18:16:37.570Z,45.90
2018-04-18T18:19:07.617Z,46.60
2018-04-18T18:21:36.613Z,46.60
2018-04-18T18:24:05.749Z,46.20
2018-04-18T18:26:34.658Z,46.10
2018-04-18T18:29:03.800Z,46.70
2018-04-18T18:31:32.843Z,46.90
2018-04-18T18:34:01.693Z,46.60
2018-04-18T18:36:30.680Z,47.20
2018-04-18T18:38:59.609Z,46.60
2018-04-18T18:41:28.539Z,47.10
2018-04-18T18:43:57.695Z,47.40
2018-04-18T18:46:26.804Z,47.50
2018-04-18T18:48:55.685Z,47.50
2018-04-18T18:51:24.688Z,47.30
2018-04-18T18:53:54.545Z,46.80
2018-04-18T18:56:23.785Z,46.80
2018-04-18T18:58:52.740Z,47.90
2018-04-18T19:01:21.673Z,48.90
2018-04-18T19:03:50.597Z,50.20
2018-04-18T19:06:19.702Z,50.50
2018-04-18T19:08:48.649Z,49.90
2018-04-18T19:11:17.844Z,49.70
2018-04-18T19:13:46.899Z,49.90
2018-04-18T19:16:15.848Z,49.60
2018-04-18T19:18:45.621Z,49.50
2018-04-18T19:21:14.576Z,49.50
2018-04-18T19:23:43.519Z,49.50
2018-04-18T19:26:12.566Z,49.90
2018-04-18T19:28:41.666Z,50.60
2018-04-18T19:31:10.546Z,49.10
2018-04-18T19:33:39.500Z,48.90
2018-04-18T19:36:08.457Z,49.50
2018-04-18T19:38:38.138Z,50.20
2018-04-18T19:41:07.520Z,50.10
2018-04-18T19:43:37.425Z,50.70
2018-04-18T19:46:07.438Z,49.80
2018-04-18T19:48:36.566Z,49.80
2018-04-18T19:51:05.508Z,50.30
2018-04-18T19:53:34.413Z,51.30
2018-04-18T19:56:03.425Z,50.80
2018-04-18T19:58:32.345Z,51.20
2018-04-18T20:01:01.388Z,50.60
2018-04-18T20:03:30.596Z,50.90
2018-04-18T20:05:59.856Z,49.90
2018-04-18T20:08:28.761Z,50.50
2018-04-18T20:11:01.209Z,50.40
2018-04-18T20:13:30.568Z,50.10
2018-04-18T20:16:00.765Z,50.50
2018-04-18T20:18:29.701Z,50.40
2018-04-18T20:20:58.708Z,51.10
2018-04-18T20:23:27.791Z,52.50
2018-04-18T20:25:56.695Z,52.30
2018-04-18T20:28:25.668Z,52.90
2018-04-18T20:30:54.596Z,51.90
2018-04-18T20:33:23.701Z,52.50
2018-04-18T20:35:52.603Z,52.70
2018-04-18T20:38:21.493Z,53.10
2018-04-18T20:40:51.133Z,53.40
2018-04-18T20:43:20.232Z,53.30
2018-04-18T20:45:51.036Z,52.70
2018-04-18T20:48:21.086Z,52.50
2018-04-18T20:50:50.094Z,52.50
2018-04-18T20:53:19.014Z,52.20
2018-04-18T20:55:47.942Z,52.20
2018-04-18T20:58:17.160Z,52.50
2018-04-18T21:00:46.083Z,53.00
2018-04-18T21:03:15.211Z,53.00
2018-04-18T21:05:44.219Z,53.50
2018-04-18T21:08:13.819Z,53.40
2018-04-18T21:10:42.802Z,52.90
2018-04-18T21:13:11.693Z,52.00
2018-04-18T21:15:40.590Z,50.80
2018-04-18T21:18:09.729Z,52.20
2018-04-18T21:20:38.640Z,51.70
2018-04-18T21:23:07.577Z,49.40
2018-04-18T21:25:36.570Z,47.10
2018-04-18T21:28:05.475Z,48.40
2018-04-18T21:30:35.339Z,48.10
2018-04-18T21:33:04.408Z,48.10
2018-04-18T21:35:33.291Z,47.00
2018-04-18T21:38:02.185Z,46.50
2018-04-18T21:40:31.251Z,46.10
2018-04-18T21:43:00.308Z,46.30
2018-04-18T21:45:29.245Z,46.10
2018-04-18T21:47:58.325Z,45.70
2018-04-18T21:50:27.188Z,46.10
2018-04-18T21:52:56.111Z,44.80
2018-04-18T21:55:24.992Z,43.60
2018-04-18T21:57:53.934Z,43.00
2018-04-18T22:00:22.821Z,43.60
2018-04-18T22:02:51.762Z,44.00
2018-04-18T22:05:20.734Z,43.00
2018-04-18T22:07:49.613Z,44.70
2018-04-18T22:10:18.555Z,45.50
2018-04-18T22:12:48.233Z,45.90
2018-04-18T22:15:17.117Z,45.80
2018-04-18T22:17:46.013Z,48.60
2018-04-18T22:20:14.885Z,48.00
2018-04-18T22:22:43.730Z,47.60
2018-04-18T22:25:13.428Z,48.70
2018-04-18T22:27:43.101Z,47.50
2018-04-18T22:30:12.001Z,47.50
2018-04-18T22:32:41.061Z,48.30
2018-04-18T22:35:10.244Z,48.40
2018-04-18T22:37:39.099Z,48.80
2018-04-18T22:40:08.003Z,48.50
2018-04-18T22:42:37.833Z,47.80
2018-04-18T22:45:07.089Z,47.80
2018-04-18T22:47:35.991Z,46.60
2018-04-18T22:50:04.904Z,47.00
2018-04-18T22:52:34.800Z,45.60
2018-04-18T22:55:03.677Z,45.60
2018-04-18T22:57:32.797Z,44.10
2018-04-18T23:00:02.436Z,41.00
2018-04-18T23:02:31.308Z,41.00
2018-04-18T23:05:00.181Z,42.00
2018-04-18T23:07:29.054Z,40.50
2018-04-18T23:09:57.936Z,41.80
2018-04-18T23:12:26.828Z,45.50
2018-04-18T23:14:55.696Z,46.80
2018-04-18T23:17:24.573Z,45.60
2018-04-18T23:19:53.449Z,45.40
2018-04-18T23:22:34.390Z,46.20
2018-04-18T23:25:03.349Z,48.90
2018-04-18T23:27:32.580Z,49.00
2018-04-18T23:30:01.482Z,47.70
2018-04-18T23:32:31.203Z,46.80
2018-04-18T23:35:00.223Z,46.70
2018-04-18T23:37:29.078Z,46.30
2018-04-18T23:39:58.823Z,46.50
2018-04-18T23:42:27.685Z,46.50
2018-04-18T23:44:56.543Z,46.70
2018-04-18T23:47:25.786Z,46.90
2018-04-18T23:49:54.960Z,47.80
2018-04-18T23:52:24.598Z,47.60
2018-04-18T23:54:53.467Z,47.50
2018-04-18T23:57:23.159Z,47.70
2018-04-18T23:59:52.065Z,47.70
